Time;durP1;ratioP1;P1;durP2;ratioP2;P2;SDS_P1;SDS_P2;PMS_P1;PMS_P2;Temp;Humidity;BMP_temperature;BMP_pressure;BME280_temperature;BME280_humidity;BME280_pressure;Samples;Min_cycle;Max_cycle;Signal;HPM_P1;HPM_P2
2023/06/08 00:01:25;;;;;;;5.13;3.87;;;19.80;50.60;;;;;;5186497;28;20446;-44
2023/06/08 00:03:56;;;;;;;4.70;3.93;;;19.80;51.10;;;;;;5209163;28;20226;-43
2023/06/08 00:06:33;;;;;;;4.13;3.73;;;19.70;51.10;;;;;;5185860;28;20835;-43
2023/06/08 00:09:04;;;;;;;4.87;3.90;;;19.60;51.20;;;;;;5202770;28;20281;-44
2023/06/08 00:11:35;;;;;;;4.37;3.43;;;19.60;51.10;;;;;;5206989;28;20438;-44
2023/06/08 00:14:06;;;;;;;4.47;4.17;;;19.60;51.10;;;;;;5174689;28;20473;-45
2023/06/08 00:16:38;;;;;;;3.50;3.20;;;19.50;51.40;;;;;;5212182;28;20480;-43
2023/06/08 00:19:08;;;;;;;4.43;4.03;;;19.40;51.50;;;;;;5212758;28;20195;-44
2023/06/08 00:21:39;;;;;;;3.60;3.30;;;19.40;51.90;;;;;;5214997;28;20441;-44
2023/06/08 00:24:11;;;;;;;3.93;3.63;;;19.30;52.00;;;;;;5196327;28;20200;-44
2023/06/08 00:26:42;;;;;;;5.47;4.40;;;19.30;52.40;;;;;;5190238;28;20188;-44
2023/06/08 00:29:12;;;;;;;4.87;4.37;;;19.20;52.60;;;;;;5193466;28;20911;-44
2023/06/08 00:31:43;;;;;;;13.60;3.10;;;19.20;52.90;;;;;;5187698;28;20199;-44
2023/06/08 00:34:14;;;;;;;3.40;3.17;;;19.10;52.90;;;;;;5192182;28;20204;-43
2023/06/08 00:36:46;;;;;;;5.00;3.50;;;19.10;53.10;;;;;;5205661;28;20652;-45
2023/06/08 00:39:17;;;;;;;3.87;3.57;;;19.00;53.10;;;;;;5203608;28;20523;-45
2023/06/08 00:41:47;;;;;;;3.93;3.60;;;18.90;53.00;;;;;;5204136;28;20183;-44
2023/06/08 00:44:18;;;;;;;5.23;3.70;;;18.90;53.10;;;;;;5208752;28;20207;-44
2023/06/08 00:46:49;;;;;;;5.57;3.90;;;18.80;53.10;;;;;;5194271;28;20242;-44
2023/06/08 00:49:20;;;;;;;3.83;3.47;;;18.80;53.20;;;;;;5188462;28;20187;-44
2023/06/08 00:51:51;;;;;;;5.07;4.23;;;18.70;53.40;;;;;;5218274;28;20175;-44
2023/06/08 00:54:24;;;;;;;4.20;3.80;;;18.60;53.40;;;;;;5206810;28;20458;-44
2023/06/08 00:56:55;;;;;;;5.10;3.33;;;18.60;53.50;;;;;;5204464;28;20184;-45
2023/06/08 00:59:29;;;;;;;3.77;3.47;;;18.60;53.70;;;;;;5198436;28;20465;-44
2023/06/08 01:02:00;;;;;;;4.87;3.60;;;18.50;54.30;;;;;;5204092;28;20447;-45
2023/06/08 01:04:31;;;;;;;5.20;3.63;;;18.50;53.70;;;;;;5187099;28;20495;-45
2023/06/08 01:07:31;;;;;;;5.27;3.40;;;18.50;53.80;;;;;;5207223;28;20234;-45
2023/06/08 01:10:08;;;;;;;3.63;3.33;;;18.40;53.80;;;;;;5175299;28;20457;-45
2023/06/08 01:12:44;;;;;;;3.83;3.50;;;18.40;53.60;;;;;;5201284;28;20438;-44
2023/06/08 01:15:35;;;;;;;6.17;4.17;;;18.40;54.00;;;;;;5205840;28;20958;-44
2023/06/08 01:18:08;;;;;;;6.90;4.00;;;18.40;53.50;;;;;;5185433;28;20435;-45
2023/06/08 01:21:08;;;;;;;4.97;3.90;;;18.40;53.30;;;;;;5196167;28;20492;-45
2023/06/08 01:24:14;;;;;;;3.73;3.53;;;18.40;53.20;;;;;;5214948;28;20440;-44
2023/06/08 01:26:49;;;;;;;4.47;4.07;;;18.50;53.10;;;;;;5188996;28;20430;-44
2023/06/08 01:29:27;;;;;;;7.27;3.57;;;18.40;53.00;;;;;;5207442;28;20494;-44
2023/06/08 01:31:57;;;;;;;4.60;4.20;;;18.40;52.90;;;;;;5214461;28;20449;-43
2023/06/08 01:34:28;;;;;;;3.90;3.60;;;18.40;52.80;;;;;;5208459;28;21051;-44
2023/06/08 01:37:31;;;;;;;3.40;3.20;;;18.40;52.80;;;;;;5216422;28;20192;-45
2023/06/08 01:40:20;;;;;;;6.37;4.37;;;18.40;52.60;;;;;;5187489;28;20226;-45
2023/06/08 01:42:53;;;;;;;6.53;4.77;;;18.40;52.60;;;;;;5216628;28;20460;-44
2023/06/08 01:45:26;;;;;;;10.70;3.30;;;18.40;52.70;;;;;;5194813;28;21049;-44
2023/06/08 01:48:05;;;;;;;3.27;3.07;;;18.30;52.50;;;;;;5196355;28;20438;-44
2023/06/08 01:50:37;;;;;;;4.90;4.13;;;18.30;52.50;;;;;;5199386;28;20444;-43
2023/06/08 01:53:08;;;;;;;4.10;3.10;;;18.20;52.60;;;;;;5195957;28;20445;-45
2023/06/08 01:55:38;;;;;;;5.63;4.00;;;18.10;52.70;;;;;;5216458;28;20444;-44
2023/06/08 01:58:09;;;;;;;7.57;3.47;;;18.10;52.90;;;;;;5219401;28;20184;-45
2023/06/08 02:00:39;;;;;;;4.53;3.73;;;18.00;53.10;;;;;;5196537;28;20266;-45
2023/06/08 02:03:10;;;;;;;4.27;3.77;;;17.90;53.20;;;;;;5192127;28;20199;-44
2023/06/08 02:05:41;;;;;;;5.60;4.03;;;17.80;53.30;;;;;;5211046;28;20196;-44
2023/06/08 02:08:11;;;;;;;4.53;4.00;;;17.80;53.50;;;;;;5209238;28;20270;-51
2023/06/08 02:10:42;;;;;;;5.17;4.40;;;17.70;53.60;;;;;;5215527;28;20553;-45
2023/06/08 02:13:12;;;;;;;6.07;4.23;;;17.70;53.70;;;;;;5190437;28;20267;-45
2023/06/08 02:15:43;;;;;;;4.17;3.80;;;17.60;53.60;;;;;;5210565;28;20687;-45
2023/06/08 02:18:14;;;;;;;5.40;4.73;;;17.60;53.70;;;;;;5197113;28;20191;-45
2023/06/08 02:20:45;;;;;;;5.40;4.43;;;17.60;53.80;;;;;;5209585;28;20206;-45
2023/06/08 02:23:16;;;;;;;4.50;4.20;;;17.50;53.90;;;;;;5186389;28;20427;-50
2023/06/08 02:25:50;;;;;;;7.87;4.03;;;17.40;53.80;;;;;;5205551;28;20679;-45
2023/06/08 02:28:21;;;;;;;4.10;3.50;;;17.40;53.80;;;;;;5194224;28;20174;-44
2023/06/08 02:30:51;;;;;;;4.30;3.90;;;17.40;53.80;;;;;;5200548;28;20455;-44
2023/06/08 02:33:22;;;;;;;7.80;4.70;;;17.40;53.70;;;;;;5211784;28;20192;-44
2023/06/08 02:35:53;;;;;;;4.40;3.90;;;17.30;53.50;;;;;;5211788;28;20680;-45
2023/06/08 02:38:25;;;;;;;7.10;4.17;;;17.30;53.40;;;;;;5205399;28;20184;-44
2023/06/08 02:40:55;;;;;;;5.70;3.80;;;17.30;53.40;;;;;;5209923;28;20249;-43
2023/06/08 02:43:26;;;;;;;7.30;3.90;;;17.30;53.50;;;;;;5223192;28;20414;-44
2023/06/08 02:45:56;;;;;;;4.17;3.90;;;17.20;53.60;;;;;;5184225;28;20196;-44
2023/06/08 02:48:27;;;;;;;7.43;4.60;;;17.20;53.60;;;;;;5213293;28;20206;-44
2023/06/08 02:50:58;;;;;;;4.23;3.93;;;17.20;53.60;;;;;;5200830;28;20602;-44
2023/06/08 02:53:28;;;;;;;7.00;4.77;;;17.20;53.50;;;;;;5202684;28;20231;-44
2023/06/08 02:55:59;;;;;;;6.83;3.90;;;17.20;53.60;;;;;;5212333;28;20206;-44
2023/06/08 02:58:30;;;;;;;4.50;4.10;;;17.10;53.60;;;;;;5206318;28;20683;-43
2023/06/08 03:01:01;;;;;;;4.13;3.80;;;17.10;53.30;;;;;;5185215;28;20246;-45
2023/06/08 03:03:32;;;;;;;6.20;3.20;;;17.10;53.40;;;;;;5203697;28;20954;-44
2023/06/08 03:06:03;;;;;;;5.43;3.87;;;17.10;53.40;;;;;;5189252;28;20238;-44
2023/06/08 03:08:34;;;;;;;4.07;3.67;;;17.10;53.30;;;;;;5215149;28;20560;-45
2023/06/08 03:11:04;;;;;;;8.80;4.10;;;17.10;53.40;;;;;;5212254;28;20451;-44
2023/06/08 03:13:35;;;;;;;5.73;4.00;;;17.20;53.40;;;;;;5222756;28;20375;-44
2023/06/08 03:16:05;;;;;;;8.00;4.37;;;17.20;53.20;;;;;;5192457;28;20223;-45
2023/06/08 03:18:37;;;;;;;4.33;4.03;;;17.20;53.00;;;;;;5191893;28;20689;-45
2023/06/08 03:21:08;;;;;;;3.73;3.43;;;17.20;52.90;;;;;;5215329;28;20198;-44
2023/06/08 03:23:39;;;;;;;4.87;3.80;;;17.30;52.90;;;;;;5195390;28;20441;-44
2023/06/08 03:26:10;;;;;;;14.93;3.63;;;17.30;52.80;;;;;;5189595;28;20455;-44
2023/06/08 03:28:41;;;;;;;5.30;4.67;;;17.30;52.70;;;;;;5201451;28;20183;-44
2023/06/08 03:31:12;;;;;;;5.03;3.50;;;17.30;52.60;;;;;;5207832;28;20445;-44
2023/06/08 03:33:43;;;;;;;4.10;3.77;;;17.30;52.70;;;;;;5192149;28;20171;-44
2023/06/08 03:36:14;;;;;;;4.80;4.10;;;17.30;52.60;;;;;;5206965;28;20461;-44
2023/06/08 03:38:44;;;;;;;4.27;3.77;;;17.30;52.30;;;;;;5204830;28;20283;-44
2023/06/08 03:41:15;;;;;;;5.57;4.40;;;17.30;52.20;;;;;;5198444;28;20207;-44
2023/06/08 03:43:45;;;;;;;4.30;3.90;;;17.40;52.10;;;;;;5201588;28;20175;-44
2023/06/08 03:46:16;;;;;;;5.10;4.00;;;17.40;52.30;;;;;;5195826;28;20218;-45
2023/06/08 03:48:47;;;;;;;4.53;4.03;;;17.50;51.70;;;;;;5209374;28;20179;-45
2023/06/08 03:51:23;;;;;;;5.60;4.30;;;17.50;51.70;;;;;;5209100;28;20164;-44
2023/06/08 03:53:53;;;;;;;5.47;4.07;;;17.60;51.90;;;;;;5214132;28;20438;-44
2023/06/08 03:56:25;;;;;;;4.20;3.80;;;17.70;50.70;;;;;;5210158;28;20469;-44
2023/06/08 03:58:59;;;;;;;3.97;3.67;;;17.80;50.50;;;;;;5203804;28;20306;-44
2023/06/08 04:01:30;;;;;;;7.80;4.40;;;17.90;50.20;;;;;;5207200;28;20510;-45
2023/06/08 04:04:01;;;;;;;4.33;3.93;;;18.10;50.20;;;;;;5201211;28;20472;-44
2023/06/08 04:06:33;;;;;;;5.23;4.17;;;18.20;49.70;;;;;;5189350;28;20175;-43
2023/06/08 04:09:04;;;;;;;4.03;3.73;;;18.40;49.50;;;;;;5205718;28;20217;-44
2023/06/08 04:11:34;;;;;;;4.40;4.10;;;18.50;49.30;;;;;;5217348;28;20442;-45
2023/06/08 04:14:05;;;;;;;4.17;3.87;;;18.60;48.90;;;;;;5209318;28;20826;-46
2023/06/08 04:16:36;;;;;;;3.90;3.60;;;18.50;48.40;;;;;;5215254;28;20651;-43
2023/06/08 04:19:09;;;;;;;4.13;3.80;;;18.50;48.10;;;;;;5205800;28;20359;-45
2023/06/08 04:21:42;;;;;;;3.40;3.20;;;18.60;48.10;;;;;;5211227;28;20438;-45
2023/06/08 04:24:13;;;;;;;9.20;4.30;;;18.70;47.70;;;;;;5207667;28;20457;-45
2023/06/08 04:26:45;;;;;;;4.80;3.57;;;18.90;47.50;;;;;;5194244;28;20437;-45
2023/06/08 04:29:15;;;;;;;4.23;3.93;;;18.90;47.00;;;;;;5207945;28;20184;-44
2023/06/08 04:31:46;;;;;;;14.10;4.73;;;19.10;46.60;;;;;;5171242;28;20435;-45
2023/06/08 04:34:17;;;;;;;5.60;4.73;;;19.30;46.50;;;;;;5203924;28;20237;-44
2023/06/08 04:36:47;;;;;;;5.73;4.20;;;19.60;45.90;;;;;;5187529;28;20617;-44
2023/06/08 04:39:18;;;;;;;4.67;4.30;;;19.80;46.00;;;;;;5205973;28;20207;-44
2023/06/08 04:41:49;;;;;;;5.10;4.60;;;20.10;45.70;;;;;;5220465;28;20189;-44
2023/06/08 04:44:20;;;;;;;4.37;4.07;;;20.50;45.30;;;;;;5210695;28;20317;-44
2023/06/08 04:46:51;;;;;;;4.90;4.40;;;20.90;44.10;;;;;;5190489;28;20510;-43
2023/06/08 04:49:22;;;;;;;7.80;4.07;;;21.10;43.50;;;;;;5179422;28;20790;-44
2023/06/08 04:51:55;;;;;;;5.33;4.17;;;21.20;43.20;;;;;;5183514;28;20291;-44
2023/06/08 04:54:26;;;;;;;5.63;4.50;;;21.00;43.20;;;;;;5204046;28;20302;-44
2023/06/08 04:56:58;;;;;;;3.70;3.47;;;20.70;43.80;;;;;;5206025;28;20509;-44
2023/06/08 04:59:30;;;;;;;8.73;5.00;;;20.50;44.20;;;;;;5202997;28;20466;-43
2023/06/08 05:02:01;;;;;;;3.90;3.50;;;20.30;44.60;;;;;;5214107;28;20613;-43
2023/06/08 05:04:32;;;;;;;4.50;4.10;;;20.30;44.80;;;;;;5190577;28;20464;-43
2023/06/08 05:07:02;;;;;;;7.27;4.10;;;20.20;44.30;;;;;;5208376;28;20442;-42
2023/06/08 05:09:33;;;;;;;10.27;4.93;;;20.00;44.10;;;;;;5190513;28;20198;-44
2023/06/08 05:12:05;;;;;;;4.53;3.97;;;19.90;44.50;;;;;;5201836;28;20191;-44
2023/06/08 05:14:36;;;;;;;4.13;3.60;;;20.30;44.20;;;;;;5193699;28;20572;-42
2023/06/08 05:17:08;;;;;;;5.73;4.40;;;21.10;42.70;;;;;;5207977;28;20429;-45
2023/06/08 05:19:39;;;;;;;7.77;4.03;;;21.10;42.60;;;;;;5183256;28;20207;-44
2023/06/08 05:22:09;;;;;;;5.90;4.30;;;20.70;43.10;;;;;;5186416;28;20442;-43
2023/06/08 05:24:40;;;;;;;7.03;4.03;;;20.60;44.00;;;;;;5201451;28;20200;-44
2023/06/08 05:27:11;;;;;;;8.93;3.57;;;20.70;44.30;;;;;;5203662;28;20199;-43
2023/06/08 05:29:41;;;;;;;5.37;3.20;;;20.90;43.90;;;;;;5203515;28;20200;-45
2023/06/08 05:32:12;;;;;;;4.70;4.30;;;21.30;43.50;;;;;;5184536;28;20194;-43
2023/06/08 05:34:42;;;;;;;8.83;4.50;;;22.00;42.80;;;;;;5200582;28;20214;-43
2023/06/08 05:37:14;;;;;;;8.97;4.00;;;23.40;40.40;;;;;;5192046;28;20233;-44
2023/06/08 05:39:45;;;;;;;3.07;2.90;;;24.30;38.80;;;;;;5207589;28;20593;-44
2023/06/08 05:42:15;;;;;;;7.73;3.80;;;24.50;38.60;;;;;;5197512;28;20446;-43
2023/06/08 05:44:46;;;;;;;5.80;4.17;;;24.40;38.40;;;;;;5210248;28;20196;-43
2023/06/08 05:47:17;;;;;;;8.23;3.20;;;24.20;38.80;;;;;;5196443;28;20187;-44
2023/06/08 05:49:48;;;;;;;9.30;4.00;;;24.90;39.60;;;;;;5211542;28;20459;-45
2023/06/08 05:52:18;;;;;;;4.70;3.70;;;27.00;36.30;;;;;;5184014;28;20187;-44
2023/06/08 05:54:50;;;;;;;7.67;4.13;;;29.00;32.90;;;;;;5183137;28;20207;-45
2023/06/08 05:57:21;;;;;;;4.83;3.50;;;30.30;30.50;;;;;;5201592;28;20241;-44
2023/06/08 05:59:52;;;;;;;3.07;2.87;;;31.30;29.80;;;;;;5192949;28;20621;-46
2023/06/08 06:02:22;;;;;;;8.17;4.43;;;32.70;29.10;;;;;;5198552;28;20492;-46
2023/06/08 06:04:53;;;;;;;3.10;2.90;;;33.50;27.80;;;;;;5198889;28;20211;-45
2023/06/08 06:07:23;;;;;;;7.57;3.37;;;34.30;26.80;;;;;;5213114;28;20261;-45
2023/06/08 06:09:54;;;;;;;4.80;3.30;;;34.30;26.80;;;;;;5184952;28;20571;-45
2023/06/08 06:12:25;;;;;;;9.27;3.20;;;34.50;25.80;;;;;;5198059;28;20182;-45
2023/06/08 06:14:55;;;;;;;7.93;4.70;;;34.70;25.90;;;;;;5185611;28;20696;-43
2023/06/08 06:17:26;;;;;;;9.10;3.43;;;34.40;25.90;;;;;;5202540;28;20198;-44
2023/06/08 06:19:57;;;;;;;6.60;4.93;;;34.90;26.00;;;;;;5183198;28;20214;-45
2023/06/08 06:22:28;;;;;;;7.73;3.93;;;33.40;26.60;;;;;;5184619;28;20179;-42
2023/06/08 06:24:58;;;;;;;10.43;3.53;;;31.30;27.90;;;;;;5198041;28;20659;-43
2023/06/08 06:27:29;;;;;;;4.20;3.87;;;30.20;29.20;;;;;;5201186;28;20258;-46
2023/06/08 06:30:00;;;;;;;6.67;3.70;;;31.00;29.30;;;;;;5205067;28;20194;-45
2023/06/08 06:32:30;;;;;;;4.03;3.50;;;31.00;28.80;;;;;;5184941;28;20180;-46
2023/06/08 06:35:01;;;;;;;5.70;3.50;;;30.20;29.50;;;;;;5201114;28;20223;-45
2023/06/08 06:37:34;;;;;;;3.20;3.00;;;29.80;30.00;;;;;;5186281;28;20638;-46
2023/06/08 06:40:06;;;;;;;8.83;3.90;;;29.10;30.60;;;;;;5203595;28;20218;-45
2023/06/08 06:42:37;;;;;;;4.43;3.70;;;28.00;31.20;;;;;;5205525;28;20437;-44
2023/06/08 06:45:11;;;;;;;3.00;2.80;;;27.30;32.70;;;;;;5205476;28;20458;-45
2023/06/08 06:47:41;;;;;;;5.20;3.53;;;26.90;34.00;;;;;;5205848;28;20168;-45
2023/06/08 06:50:12;;;;;;;2.93;2.73;;;26.50;34.40;;;;;;5211238;28;20541;-44
2023/06/08 06:52:43;;;;;;;9.50;3.10;;;26.60;34.30;;;;;;5199428;28;20190;-44
2023/06/08 06:55:13;;;;;;;8.93;3.63;;;26.90;33.80;;;;;;5203468;28;20200;-44
2023/06/08 06:57:44;;;;;;;4.63;4.00;;;27.00;33.80;;;;;;5203445;28;20282;-44
2023/06/08 07:00:15;;;;;;;3.40;2.90;;;27.80;32.90;;;;;;5187219;28;20265;-45
2023/06/08 07:02:47;;;;;;;3.80;3.50;;;28.30;32.50;;;;;;5202527;28;20187;-44
2023/06/08 07:05:19;;;;;;;3.43;3.23;;;27.70;32.40;;;;;;5217684;28;20801;-46
2023/06/08 07:07:50;;;;;;;3.63;3.20;;;27.00;33.40;;;;;;5186558;28;20426;-43
2023/06/08 07:10:20;;;;;;;3.97;3.20;;;27.10;34.00;;;;;;5200686;28;20496;-45
2023/06/08 07:12:51;;;;;;;3.50;3.20;;;29.00;31.50;;;;;;5196350;28;20183;-45
2023/06/08 07:15:22;;;;;;;7.87;2.97;;;30.70;30.00;;;;;;5188936;28;20210;-45
2023/06/08 07:17:52;;;;;;;3.97;3.50;;;32.20;28.90;;;;;;5185587;28;20199;-45
2023/06/08 07:20:23;;;;;;;3.70;3.33;;;33.40;27.50;;;;;;5204412;28;20274;-44
2023/06/08 07:22:54;;;;;;;4.10;3.60;;;34.30;26.60;;;;;;5189436;28;20683;-44
2023/06/08 07:25:24;;;;;;;3.70;3.50;;;34.70;26.10;;;;;;5206290;28;20195;-45
2023/06/08 07:27:55;;;;;;;7.40;3.43;;;35.00;26.00;;;;;;5196754;28;20851;-48
2023/06/08 07:30:26;;;;;;;6.43;3.23;;;34.70;26.40;;;;;;5197211;28;20179;-44
2023/06/08 07:32:56;;;;;;;4.73;4.00;;;34.60;26.40;;;;;;5175997;28;20187;-44
2023/06/08 07:35:27;;;;;;;7.10;3.60;;;35.10;26.30;;;;;;5182779;28;20592;-46
2023/06/08 07:37:58;;;;;;;8.50;3.20;;;35.40;25.70;;;;;;5194010;28;20214;-44
2023/06/08 07:40:29;;;;;;;3.33;3.05;;;36.20;25.80;;;;;;5202530;28;20207;-45
2023/06/08 07:42:59;;;;;;;5.45;3.42;;;37.20;25.10;;;;;;5184318;28;20214;-46
2023/06/08 07:45:30;;;;;;;4.45;3.70;;;38.20;24.20;;;;;;5203853;28;20230;-46
2023/06/08 07:48:01;;;;;;;6.55;3.30;;;38.30;23.70;;;;;;5200577;28;20226;-45
2023/06/08 07:50:32;;;;;;;11.48;3.92;;;38.00;23.40;;;;;;5184777;28;20183;-46
2023/06/08 07:53:02;;;;;;;3.63;3.38;;;36.60;24.30;;;;;;5196945;28;20183;-44
2023/06/08 07:55:33;;;;;;;9.32;4.00;;;36.70;24.80;;;;;;5196226;28;20195;-44
2023/06/08 07:58:04;;;;;;;2.80;2.60;;;37.00;24.30;;;;;;5200471;28;20187;-45
2023/06/08 08:00:35;;;;;;;4.07;3.42;;;37.00;24.50;;;;;;5205560;28;20257;-45
2023/06/08 08:03:06;;;;;;;4.20;3.72;;;37.10;24.20;;;;;;5204960;28;20217;-45
2023/06/08 08:05:36;;;;;;;5.65;3.30;;;36.70;24.70;;;;;;5203056;28;20203;-44
2023/06/08 08:08:07;;;;;;;4.85;3.47;;;36.60;25.20;;;;;;5208280;28;20190;-46
2023/06/08 08:10:37;;;;;;;4.05;2.88;;;36.90;25.20;;;;;;5171275;28;20237;-45
2023/06/08 08:13:09;;;;;;;8.38;3.33;;;37.30;24.60;;;;;;5196238;28;20190;-44
2023/06/08 08:15:40;;;;;;;5.97;3.70;;;37.10;24.60;;;;;;5202328;28;20206;-45
2023/06/08 08:18:12;;;;;;;3.67;3.38;;;37.40;24.40;;;;;;5199025;28;20184;-44
2023/06/08 08:20:43;;;;;;;3.67;3.37;;;37.20;23.70;;;;;;5196990;28;20214;-45
2023/06/08 08:23:14;;;;;;;3.90;3.43;;;36.30;24.40;;;;;;5178183;28;20218;-45
2023/06/08 08:25:44;;;;;;;7.43;4.17;;;35.60;24.90;;;;;;5181320;28;20237;-44
2023/06/08 08:28:15;;;;;;;4.57;3.50;;;35.20;25.30;;;;;;5205009;28;20192;-44
2023/06/08 08:30:46;;;;;;;3.83;3.27;;;35.10;25.30;;;;;;5205084;28;20266;-44
2023/06/08 08:33:16;;;;;;;5.70;3.90;;;35.10;25.40;;;;;;5200531;28;20191;-45
2023/06/08 08:35:48;;;;;;;6.27;3.73;;;34.60;25.60;;;;;;5177819;28;20243;-46
2023/06/08 08:38:18;;;;;;;4.47;3.37;;;34.40;25.70;;;;;;5197661;28;20195;-45
2023/06/08 08:40:51;;;;;;;7.57;3.30;;;34.70;26.40;;;;;;5204803;28;20519;-46
2023/06/08 08:43:29;;;;;;;4.27;3.87;;;34.80;25.90;;;;;;5202337;28;20683;-44
2023/06/08 08:46:01;;;;;;;5.00;3.80;;;34.60;26.20;;;;;;5189994;28;20468;-45
2023/06/08 08:48:38;;;;;;;6.27;4.00;;;33.90;26.80;;;;;;5199193;28;20806;-43
2023/06/08 08:51:13;;;;;;;3.73;3.53;;;33.10;26.50;;;;;;5211707;28;21006;-45
2023/06/08 08:53:46;;;;;;;4.00;3.60;;;32.00;27.30;;;;;;5195021;28;20498;-44
2023/06/08 08:56:21;;;;;;;6.00;3.37;;;30.40;28.20;;;;;;5181756;28;20452;-45
2023/06/08 08:58:53;;;;;;;4.10;3.20;;;29.10;29.30;;;;;;5203665;28;20483;-44
2023/06/08 09:01:25;;;;;;;3.73;3.43;;;28.40;29.90;;;;;;5172382;28;20431;-45
2023/06/08 09:03:56;;;;;;;10.33;3.40;;;28.00;30.10;;;;;;5205573;28;20470;-43
2023/06/08 09:06:30;;;;;;;3.83;3.50;;;27.80;31.10;;;;;;5199125;28;20459;-45
2023/06/08 09:09:00;;;;;;;5.40;3.27;;;27.80;32.10;;;;;;5185581;28;20260;-46
2023/06/08 09:11:34;;;;;;;8.10;3.70;;;27.80;32.70;;;;;;5190934;28;20438;-44
2023/06/08 09:14:09;;;;;;;3.50;3.20;;;27.90;33.40;;;;;;5169516;28;20715;-47
2023/06/08 09:16:43;;;;;;;4.03;3.50;;;28.00;33.20;;;;;;5196009;28;20524;-46
2023/06/08 09:19:14;;;;;;;4.60;4.00;;;27.90;33.40;;;;;;5197409;28;20554;-44
2023/06/08 09:21:44;;;;;;;5.43;3.00;;;27.90;33.80;;;;;;5205160;28;21041;-45
2023/06/08 09:24:22;;;;;;;3.07;2.87;;;28.20;33.60;;;;;;5184539;28;20470;-45
2023/06/08 09:26:56;;;;;;;4.90;3.43;;;28.30;33.00;;;;;;5179277;28;20257;-44
2023/06/08 09:29:37;;;;;;;7.03;3.33;;;28.20;33.40;;;;;;5184134;28;20496;-46
2023/06/08 09:32:12;;;;;;;5.80;2.70;;;28.10;33.50;;;;;;5197223;28;20429;-44
2023/06/08 09:34:58;;;;;;;3.43;3.30;;;27.80;33.10;;;;;;5187094;28;20461;-44
2023/06/08 09:37:30;;;;;;;4.70;3.90;;;27.60;33.30;;;;;;5177603;28;21002;-53
2023/06/08 09:40:04;;;;;;;5.03;2.87;;;27.70;33.00;;;;;;5201129;28;20592;-44
2023/06/08 09:42:50;;;;;;;7.73;3.53;;;27.90;33.00;;;;;;5205291;28;20441;-44
2023/06/08 09:45:21;;;;;;;4.07;3.27;;;28.00;33.00;;;;;;5198619;28;20452;-45
2023/06/08 09:47:51;;;;;;;10.00;3.87;;;28.10;33.20;;;;;;5199953;28;20434;-46
2023/06/08 09:50:22;;;;;;;3.63;3.03;;;28.30;33.10;;;;;;5179222;28;20187;-45
2023/06/08 09:52:54;;;;;;;4.23;3.83;;;28.40;33.00;;;;;;5194620;28;20334;-45
2023/06/08 09:55:25;;;;;;;7.70;3.10;;;28.40;32.60;;;;;;5192369;28;21600;-44
2023/06/08 09:57:57;;;;;;;3.47;3.23;;;28.20;33.20;;;;;;5183138;28;20808;-43
2023/06/08 10:00:29;;;;;;;10.37;2.93;;;28.10;33.90;;;;;;5193827;28;20638;-44
2023/06/08 10:03:03;;;;;;;5.70;3.50;;;27.90;33.60;;;;;;5196644;28;20465;-46
2023/06/08 10:05:36;;;;;;;7.23;3.03;;;27.90;33.80;;;;;;5200881;28;21072;-45
2023/06/08 10:08:09;;;;;;;8.10;3.30;;;27.80;34.00;;;;;;5203061;28;20921;-45
2023/06/08 10:10:41;;;;;;;3.90;3.60;;;27.80;33.60;;;;;;5183099;28;20426;-44
2023/06/08 10:13:13;;;;;;;5.77;3.27;;;27.90;33.30;;;;;;5188688;28;20453;-47
2023/06/08 10:15:44;;;;;;;3.40;3.20;;;27.90;33.50;;;;;;5206628;28;20460;-46
2023/06/08 10:18:14;;;;;;;5.30;3.40;;;28.00;33.30;;;;;;5191674;28;20848;-46
2023/06/08 10:20:45;;;;;;;3.23;3.10;;;28.00;33.60;;;;;;5198828;28;20211;-47
2023/06/08 10:23:17;;;;;;;3.30;3.00;;;28.00;33.20;;;;;;5202835;28;20199;-45
2023/06/08 10:25:50;;;;;;;3.30;3.10;;;27.90;33.70;;;;;;5206764;28;20206;-45
2023/06/08 10:28:21;;;;;;;10.07;4.30;;;27.80;34.20;;;;;;5206992;28;20870;-45
2023/06/08 10:30:52;;;;;;;5.67;3.63;;;27.70;34.60;;;;;;5203245;28;20477;-45
2023/06/08 10:33:24;;;;;;;3.70;3.50;;;27.80;34.30;;;;;;5207984;28;20180;-46
2023/06/08 10:36:11;;;;;;;3.23;2.97;;;27.80;34.50;;;;;;5189782;28;20284;-46
2023/06/08 10:38:55;;;;;;;4.00;3.67;;;27.80;34.40;;;;;;5199111;28;20517;-44
2023/06/08 10:41:56;;;;;;;4.40;3.40;;;28.00;34.40;;;;;;5183714;28;20430;-46
2023/06/08 10:44:31;;;;;;;5.70;2.70;;;28.10;33.90;;;;;;5205858;28;20442;-47
2023/06/08 10:47:11;;;;;;;5.60;4.10;;;27.80;34.40;;;;;;5205892;28;20496;-46
2023/06/08 10:49:45;;;;;;;5.33;4.53;;;27.70;34.40;;;;;;5205209;28;20426;-46
2023/06/08 10:52:21;;;;;;;5.67;3.57;;;27.80;34.30;;;;;;5199939;28;20934;-44
2023/06/08 10:54:56;;;;;;;6.80;3.87;;;27.90;34.80;;;;;;5201256;28;20461;-45
2023/06/08 10:57:36;;;;;;;4.87;4.17;;;28.10;34.90;;;;;;5206434;28;20444;-45
2023/06/08 11:00:25;;;;;;;5.47;4.17;;;28.20;34.30;;;;;;5185185;28;20481;-49
2023/06/08 11:02:59;;;;;;;3.43;3.17;;;28.30;34.20;;;;;;5194858;28;20439;-45
2023/06/08 11:05:31;;;;;;;7.20;3.60;;;28.50;33.80;;;;;;5198129;28;20489;-46
2023/06/08 11:08:03;;;;;;;5.73;4.07;;;28.60;33.90;;;;;;5202154;28;20434;-45
2023/06/08 11:10:36;;;;;;;3.30;3.00;;;28.50;34.20;;;;;;5187484;28;20908;-46
2023/06/08 11:13:09;;;;;;;2.97;2.60;;;28.30;34.10;;;;;;5203005;28;20442;-45
2023/06/08 11:15:42;;;;;;;7.07;3.20;;;28.30;34.10;;;;;;5187011;28;20473;-45
2023/06/08 11:18:13;;;;;;;4.80;3.30;;;28.50;33.80;;;;;;5203116;28;20801;-45
2023/06/08 11:20:44;;;;;;;12.00;4.50;;;28.60;33.10;;;;;;5207204;28;20549;-46
2023/06/08 11:23:15;;;;;;;4.37;3.93;;;28.90;32.80;;;;;;5199656;28;20429;-45
2023/06/08 11:25:49;;;;;;;2.63;2.50;;;28.90;33.40;;;;;;5188075;28;20191;-46
2023/06/08 11:28:21;;;;;;;3.43;3.03;;;28.80;32.80;;;;;;5188541;28;20453;-46
2023/06/08 11:30:53;;;;;;;5.60;4.27;;;28.60;33.10;;;;;;5176214;28;20800;-46
2023/06/08 11:33:25;;;;;;;4.13;3.20;;;28.50;33.40;;;;;;5201669;28;20438;-44
2023/06/08 11:35:55;;;;;;;6.37;3.00;;;28.60;33.30;;;;;;5199791;28;20477;-45
2023/06/08 11:38:26;;;;;;;3.07;2.87;;;28.50;32.40;;;;;;5199099;28;20530;-45
2023/06/08 11:40:58;;;;;;;6.40;2.87;;;28.60;33.60;;;;;;5193346;28;20239;-44
2023/06/08 11:43:29;;;;;;;3.67;3.23;;;28.80;33.90;;;;;;5196955;28;20192;-45
2023/06/08 11:46:01;;;;;;;4.63;3.30;;;28.90;32.40;;;;;;5197328;28;20548;-45
2023/06/08 11:48:32;;;;;;;6.40;3.10;;;28.90;32.00;;;;;;5204569;28;20542;-45
2023/06/08 11:51:02;;;;;;;5.43;3.30;;;28.70;31.20;;;;;;5180937;28;20519;-47
2023/06/08 11:53:33;;;;;;;3.30;3.20;;;28.50;31.20;;;;;;5200235;28;20434;-43
2023/06/08 11:56:04;;;;;;;3.40;3.20;;;28.50;32.30;;;;;;5180156;28;20266;-44
2023/06/08 11:58:36;;;;;;;5.80;3.77;;;28.60;32.20;;;;;;5196224;28;20188;-44
2023/06/08 12:01:11;;;;;;;3.17;3.07;;;28.60;33.70;;;;;;5185780;28;20211;-46
2023/06/08 12:03:46;;;;;;;5.63;3.77;;;28.70;32.60;;;;;;5199545;28;20935;-44
2023/06/08 12:06:18;;;;;;;7.67;3.60;;;28.60;31.90;;;;;;5179324;28;20430;-44
2023/06/08 12:08:49;;;;;;;3.50;3.20;;;28.70;32.20;;;;;;5204792;28;20471;-45
2023/06/08 12:11:21;;;;;;;10.30;3.30;;;28.70;31.50;;;;;;5176794;28;20486;-44
2023/06/08 12:13:52;;;;;;;3.67;3.37;;;28.60;32.50;;;;;;5180982;28;22385;-45
2023/06/08 12:16:23;;;;;;;6.80;3.40;;;28.50;32.40;;;;;;5195231;28;20440;-44
2023/06/08 12:18:56;;;;;;;5.43;3.20;;;28.50;33.20;;;;;;5180032;28;20537;-43
2023/06/08 12:21:26;;;;;;;8.40;3.97;;;28.60;33.00;;;;;;5193485;28;20180;-44
2023/06/08 12:23:57;;;;;;;4.03;3.80;;;28.70;32.80;;;;;;5178286;28;20441;-45
2023/06/08 12:26:28;;;;;;;3.80;3.23;;;28.80;32.00;;;;;;5203440;28;20261;-46
2023/06/08 12:29:06;;;;;;;3.70;3.37;;;28.80;32.00;;;;;;5200788;28;20188;-44
2023/06/08 12:31:36;;;;;;;3.90;3.50;;;28.80;30.70;;;;;;5203703;28;21306;-44
2023/06/08 12:34:07;;;;;;;3.10;2.87;;;28.80;31.10;;;;;;5205458;28;20457;-45
2023/06/08 12:36:38;;;;;;;4.03;3.63;;;28.90;31.30;;;;;;5185281;28;20743;-44
2023/06/08 12:39:09;;;;;;;7.17;3.80;;;29.00;30.90;;;;;;5194735;28;20202;-45
2023/06/08 12:41:40;;;;;;;3.57;3.23;;;29.20;31.20;;;;;;5203814;28;20442;-44
2023/06/08 12:44:10;;;;;;;4.40;4.10;;;29.10;31.60;;;;;;5203782;28;20274;-46
2023/06/08 12:46:41;;;;;;;3.63;3.37;;;29.10;30.80;;;;;;5185272;28;20244;-45
2023/06/08 12:49:12;;;;;;;5.33;2.90;;;29.10;30.00;;;;;;5193880;28;20204;-43
2023/06/08 12:51:42;;;;;;;4.73;3.30;;;29.10;30.00;;;;;;5202877;28;20179;-44
2023/06/08 12:54:13;;;;;;;3.90;3.47;;;29.00;29.90;;;;;;5177016;28;20200;-44
2023/06/08 12:56:44;;;;;;;5.13;4.37;;;28.90;30.30;;;;;;5184554;28;20589;-45
2023/06/08 12:59:14;;;;;;;5.70;3.13;;;28.90;31.50;;;;;;5186516;28;20179;-44
2023/06/08 13:01:45;;;;;;;3.37;3.17;;;28.90;31.70;;;;;;5208921;28;20429;-45
2023/06/08 13:04:16;;;;;;;3.67;3.37;;;28.80;31.80;;;;;;5189546;28;20209;-45
2023/06/08 13:06:46;;;;;;;3.60;3.30;;;28.90;30.90;;;;;;5198296;28;20199;-44
2023/06/08 13:09:17;;;;;;;3.77;3.20;;;28.90;30.60;;;;;;5200053;28;20198;-44
2023/06/08 13:11:48;;;;;;;3.00;2.87;;;28.90;30.20;;;;;;5187813;28;20644;-45